createdAt,value
2019-02-19T00:00:37.273Z,3.05
2019-02-19T00:03:05.775Z,2.20
2019-02-19T00:05:34.591Z,2.30
2019-02-19T00:08:03.078Z,1.50
2019-02-19T00:10:31.494Z,1.85
2019-02-19T00:12:59.908Z,1.80
2019-02-19T00:15:28.341Z,1.70
2019-02-19T00:17:57.040Z,1.70
2019-02-19T00:20:25.500Z,1.40
2019-02-19T00:22:53.906Z,2.00
2019-02-19T00:25:22.710Z,1.00
2019-02-19T00:27:51.139Z,1.33
2019-02-19T00:30:19.924Z,1.42
2019-02-19T00:32:48.333Z,1.80
2019-02-19T00:35:16.727Z,1.10
2019-02-19T00:37:45.160Z,1.37
2019-02-19T00:40:13.558Z,1.47
2019-02-19T00:42:41.987Z,1.50
2019-02-19T00:45:16.434Z,1.00
2019-02-19T00:47:40.606Z,1.10
2019-02-19T00:50:09.160Z,0.70
2019-02-19T00:52:37.604Z,0.75
2019-02-19T00:55:06.996Z,0.70
2019-02-19T00:57:35.695Z,1.40
2019-02-19T01:00:06.519Z,1.00
2019-02-19T01:02:35.238Z,1.77
2019-02-19T01:05:04.398Z,1.10
2019-02-19T01:07:32.794Z,0.70
2019-02-19T01:10:01.245Z,1.60
2019-02-19T01:12:29.668Z,1.30
2019-02-19T01:14:58.108Z,1.10
2019-02-19T01:17:26.757Z,1.10
2019-02-19T01:19:55.182Z,0.90
2019-02-19T01:22:23.598Z,1.20
2019-02-19T01:24:51.999Z,0.80
2019-02-19T01:27:20.689Z,0.90
2019-02-19T01:29:49.400Z,0.70
2019-02-19T01:32:18.091Z,0.82
2019-02-19T01:34:46.498Z,1.22
2019-02-19T01:37:14.931Z,1.10
2019-02-19T01:39:43.356Z,0.70
2019-02-19T01:42:11.762Z,0.90
2019-02-19T01:44:40.175Z,0.90
2019-02-19T01:47:08.582Z,1.47
2019-02-19T01:49:37.015Z,1.10
2019-02-19T01:52:05.719Z,1.92
2019-02-19T01:54:34.159Z,0.93
2019-02-19T01:57:02.813Z,1.98
2019-02-19T01:59:31.247Z,1.05
2019-02-19T02:02:00.016Z,1.00
2019-02-19T02:04:28.699Z,2.70
2019-02-19T02:06:57.399Z,0.70
2019-02-19T02:09:25.840Z,2.47
2019-02-19T02:11:54.316Z,1.50
2019-02-19T02:14:22.736Z,2.30
2019-02-19T02:16:51.139Z,1.60
2019-02-19T02:19:19.547Z,1.30
2019-02-19T02:21:48.259Z,2.40
2019-02-19T02:24:16.675Z,2.55
2019-02-19T02:26:45.105Z,1.75
2019-02-19T02:29:13.542Z,3.27
2019-02-19T02:31:41.994Z,2.92
2019-02-19T02:34:10.410Z,3.35
2019-02-19T02:36:38.831Z,4.50
2019-02-19T02:39:07.618Z,2.70
2019-02-19T02:41:36.029Z,3.50
2019-02-19T02:44:04.477Z,2.90
2019-02-19T02:46:32.878Z,3.50
2019-02-19T02:49:01.619Z,2.30
2019-02-19T02:51:30.036Z,2.75
2019-02-19T02:53:58.445Z,4.22
2019-02-19T02:56:27.198Z,4.63
2019-02-19T02:58:55.905Z,2.17
2019-02-19T03:01:24.587Z,3.35
2019-02-19T03:03:53.391Z,1.32
2019-02-19T03:06:23.496Z,1.77
2019-02-19T03:08:51.997Z,4.05
2019-02-19T03:11:20.413Z,2.40
2019-02-19T03:13:48.842Z,2.77
2019-02-19T03:16:17.691Z,3.90
2019-02-19T03:18:46.135Z,4.40
2019-02-19T03:21:14.873Z,2.45
2019-02-19T03:23:43.298Z,3.55
2019-02-19T03:26:12.097Z,2.80
2019-02-19T03:29:01.637Z,3.37
2019-02-19T03:31:30.369Z,2.70
2019-02-19T03:33:58.790Z,2.15
2019-02-19T03:36:27.216Z,2.40
2019-02-19T03:38:55.640Z,3.72
2019-02-19T03:41:24.058Z,2.72
2019-02-19T03:43:52.472Z,5.10
2019-02-19T03:46:20.894Z,1.70
2019-02-19T03:48:49.305Z,1.52
2019-02-19T03:51:18.113Z,3.22
2019-02-19T03:53:46.510Z,3.05
2019-02-19T03:56:14.925Z,4.00
2019-02-19T03:58:43.363Z,2.40
2019-02-19T04:01:12.076Z,1.60
2019-02-19T04:03:40.503Z,4.27
2019-02-19T04:06:08.996Z,6.37
2019-02-19T04:08:37.416Z,0.90
2019-02-19T04:11:05.816Z,2.80
2019-02-19T04:13:34.240Z,2.22
2019-02-19T04:16:02.682Z,3.08
2019-02-19T04:18:31.106Z,1.77
2019-02-19T04:20:59.535Z,2.47
2019-02-19T04:23:28.312Z,3.00
2019-02-19T04:25:56.712Z,1.00
2019-02-19T04:28:25.115Z,2.00
2019-02-19T04:30:53.567Z,2.10
2019-02-19T04:33:22.279Z,1.00
2019-02-19T04:35:50.740Z,2.60
2019-02-19T04:38:19.232Z,1.50
2019-02-19T04:40:47.640Z,1.55
2019-02-19T04:43:16.054Z,3.25
2019-02-19T04:45:44.481Z,3.17
2019-02-19T04:48:12.924Z,0.88
2019-02-19T04:50:41.401Z,1.80
2019-02-19T04:53:09.879Z,5.00
2019-02-19T04:55:38.303Z,1.20
2019-02-19T04:58:06.731Z,2.98
2019-02-19T05:00:35.214Z,1.85
2019-02-19T05:03:03.639Z,2.65
2019-02-19T05:05:32.072Z,1.90
2019-02-19T05:08:00.497Z,1.60
2019-02-19T05:10:29.194Z,1.90
2019-02-19T05:12:57.689Z,1.75
2019-02-19T05:15:26.113Z,3.15
2019-02-19T05:17:54.530Z,2.40
2019-02-19T05:20:23.268Z,4.60
2019-02-19T05:22:51.736Z,1.50
2019-02-19T05:25:20.154Z,3.10
2019-02-19T05:27:48.569Z,4.90
2019-02-19T05:30:17.016Z,1.70
2019-02-19T05:32:45.751Z,2.75
2019-02-19T05:35:14.251Z,2.65
2019-02-19T05:37:42.661Z,4.28
2019-02-19T05:40:11.169Z,2.95
2019-02-19T05:42:39.910Z,2.02
2019-02-19T05:45:09.753Z,2.20
2019-02-19T05:47:38.184Z,2.43
2019-02-19T05:50:08.904Z,1.92
2019-02-19T05:52:37.324Z,2.75
2019-02-19T05:55:07.782Z,2.70
2019-02-19T05:57:36.195Z,1.50
2019-02-19T06:00:08.224Z,3.90
2019-02-19T06:02:36.640Z,4.50
2019-02-19T06:05:07.577Z,3.40
2019-02-19T06:07:36.313Z,2.27
2019-02-19T06:10:08.059Z,4.67
2019-02-19T06:12:36.495Z,2.83
2019-02-19T06:15:07.873Z,5.55
2019-02-19T06:17:36.647Z,3.07
2019-02-19T06:20:06.595Z,5.10
2019-02-19T06:22:35.259Z,2.50
2019-02-19T06:25:04.331Z,2.55
2019-02-19T06:27:32.849Z,3.30
2019-02-19T06:30:01.275Z,4.20
2019-02-19T06:32:29.674Z,3.50
2019-02-19T06:34:58.112Z,4.22
2019-02-19T06:37:26.515Z,3.75
2019-02-19T06:39:54.935Z,3.40
2019-02-19T06:42:23.370Z,6.53
2019-02-19T06:44:51.775Z,4.13
2019-02-19T06:47:20.613Z,2.58
2019-02-19T06:49:49.029Z,1.77
2019-02-19T06:52:17.709Z,1.85
2019-02-19T06:54:46.135Z,1.52
2019-02-19T06:57:14.576Z,2.98
2019-02-19T06:59:42.987Z,1.80
2019-02-19T07:02:29.628Z,1.80
2019-02-19T07:04:58.531Z,2.70
2019-02-19T07:07:26.946Z,2.02
2019-02-19T07:09:56.649Z,2.55
2019-02-19T07:12:25.086Z,5.00
2019-02-19T07:14:53.537Z,2.05
2019-02-19T07:17:21.954Z,1.50
2019-02-19T07:19:50.399Z,2.85
2019-02-19T07:22:19.082Z,2.50
2019-02-19T07:24:47.503Z,1.87
2019-02-19T07:27:15.918Z,1.90
2019-02-19T07:29:44.330Z,3.58
2019-02-19T07:32:12.770Z,6.42
2019-02-19T07:34:41.177Z,3.90
2019-02-19T07:37:09.949Z,3.23
2019-02-19T07:39:38.384Z,4.50
2019-02-19T07:42:06.786Z,1.22
2019-02-19T07:44:35.222Z,3.30
2019-02-19T07:47:03.677Z,5.20
2019-02-19T07:49:32.075Z,7.23
2019-02-19T07:52:00.816Z,2.58
2019-02-19T07:54:29.211Z,2.90
2019-02-19T07:56:58.010Z,6.10
2019-02-19T07:59:26.424Z,5.75
2019-02-19T08:01:54.850Z,6.30
2019-02-19T08:04:23.270Z,7.08
2019-02-19T08:06:51.675Z,6.00
2019-02-19T08:09:20.080Z,6.25
2019-02-19T08:11:48.496Z,4.47
2019-02-19T08:14:16.953Z,7.67
2019-02-19T08:16:45.385Z,6.25
2019-02-19T08:19:13.815Z,4.80
2019-02-19T08:21:42.546Z,2.15
2019-02-19T08:24:10.951Z,3.75
2019-02-19T08:26:39.719Z,3.37
2019-02-19T08:29:13.948Z,2.90
2019-02-19T08:31:38.531Z,6.95
2019-02-19T08:34:06.975Z,2.20
2019-02-19T08:36:35.382Z,4.28
2019-02-19T08:39:04.939Z,4.00
2019-02-19T08:41:34.173Z,4.95
2019-02-19T08:44:02.573Z,1.82
2019-02-19T08:46:31.243Z,3.93
2019-02-19T08:48:59.646Z,5.22
2019-02-19T08:51:28.363Z,2.40
2019-02-19T08:53:56.848Z,5.10
2019-02-19T08:56:25.247Z,5.08
2019-02-19T08:58:53.701Z,3.43
2019-02-19T09:01:22.107Z,2.70
2019-02-19T09:03:50.508Z,3.72
2019-02-19T09:06:19.017Z,5.42
2019-02-19T09:08:47.441Z,6.10
2019-02-19T09:11:15.852Z,2.15
2019-02-19T09:13:44.565Z,2.67
2019-02-19T09:16:13.019Z,4.45
2019-02-19T09:18:41.452Z,6.08
2019-02-19T09:21:09.864Z,4.53
2019-02-19T09:23:38.561Z,2.72
2019-02-19T09:26:06.975Z,6.05
2019-02-19T09:28:35.730Z,3.55
2019-02-19T09:31:04.440Z,1.70
2019-02-19T09:33:33.147Z,3.58
2019-02-19T09:36:01.614Z,3.95
2019-02-19T09:38:30.043Z,3.20
2019-02-19T09:40:58.494Z,2.50
2019-02-19T09:43:35.152Z,2.20
2019-02-19T09:45:58.968Z,3.77
2019-02-19T09:48:27.183Z,3.22
2019-02-19T09:50:55.624Z,3.87
2019-02-19T09:53:24.360Z,4.42
2019-02-19T09:55:52.790Z,5.83
2019-02-19T09:58:21.552Z,4.33
2019-02-19T10:00:50.000Z,3.87
2019-02-19T10:03:18.463Z,2.50
2019-02-19T10:05:48.134Z,2.40
2019-02-19T10:08:16.750Z,2.70
2019-02-19T10:10:45.458Z,1.60
2019-02-19T10:13:14.153Z,4.00
2019-02-19T10:15:42.878Z,3.67
2019-02-19T10:18:11.308Z,3.47
2019-02-19T10:20:40.054Z,2.90
2019-02-19T10:23:08.488Z,3.47
2019-02-19T10:25:37.240Z,4.33
2019-02-19T10:28:05.669Z,4.53
2019-02-19T10:30:34.097Z,3.75
2019-02-19T10:33:02.838Z,2.30
2019-02-19T10:35:31.248Z,2.65
2019-02-19T10:37:59.667Z,2.73
2019-02-19T10:40:28.104Z,1.92
2019-02-19T10:42:56.791Z,2.27
2019-02-19T10:45:26.881Z,3.95
2019-02-19T10:47:55.629Z,2.67
2019-02-19T10:50:24.086Z,3.67
2019-02-19T10:52:52.931Z,2.50
2019-02-19T10:55:21.420Z,2.67
2019-02-19T10:57:49.841Z,3.10
2019-02-19T11:00:19.896Z,4.28
2019-02-19T11:02:48.642Z,3.30
2019-02-19T11:05:17.057Z,3.50
2019-02-19T11:07:45.829Z,4.28
2019-02-19T11:10:14.918Z,2.45
2019-02-19T11:12:43.664Z,3.12
2019-02-19T11:15:13.824Z,2.50
2019-02-19T11:17:42.673Z,2.62
2019-02-19T11:20:13.870Z,3.47
2019-02-19T11:22:42.735Z,3.98
2019-02-19T11:25:12.961Z,2.90
2019-02-19T11:27:41.666Z,2.08
2019-02-19T11:30:15.677Z,1.87
2019-02-19T11:32:44.164Z,3.47
2019-02-19T11:35:13.001Z,2.40
2019-02-19T11:37:41.505Z,2.20
2019-02-19T11:40:11.915Z,1.95
2019-02-19T11:42:40.341Z,4.10
2019-02-19T11:45:19.550Z,1.95
2019-02-19T11:47:47.985Z,2.65
2019-02-19T11:50:16.404Z,2.83
2019-02-19T11:52:45.152Z,2.62
2019-02-19T11:55:15.723Z,3.55
2019-02-19T11:57:44.151Z,2.27
2019-02-19T12:00:16.211Z,3.00
2019-02-19T12:02:44.634Z,2.00
2019-02-19T12:05:13.111Z,3.98
2019-02-19T12:07:41.823Z,1.40
2019-02-19T12:10:11.877Z,2.20
2019-02-19T12:12:40.704Z,2.37
2019-02-19T12:15:11.055Z,2.42
2019-02-19T12:17:39.548Z,1.85
2019-02-19T12:20:12.832Z,1.87
2019-02-19T12:22:41.338Z,3.00
2019-02-19T12:25:10.484Z,2.90
2019-02-19T12:27:38.940Z,2.42
2019-02-19T12:30:12.899Z,2.45
2019-02-19T12:32:41.324Z,1.63
2019-02-19T12:35:10.104Z,2.08
2019-02-19T12:37:38.802Z,0.70
2019-02-19T12:40:09.986Z,1.80
2019-02-19T12:42:38.403Z,1.57
2019-02-19T12:45:09.572Z,1.57
2019-02-19T12:47:37.985Z,1.70
2019-02-19T12:50:14.165Z,1.47
2019-02-19T12:52:42.639Z,2.30
2019-02-19T12:55:11.421Z,2.10
2019-02-19T12:57:39.836Z,2.07
2019-02-19T13:00:16.436Z,1.57
2019-02-19T13:02:44.855Z,2.40
2019-02-19T13:05:15.108Z,1.70
2019-02-19T13:07:43.609Z,2.30
2019-02-19T13:10:12.765Z,1.40
2019-02-19T13:12:41.189Z,2.10
2019-02-19T13:15:20.611Z,2.85
2019-02-19T13:17:49.023Z,1.20
2019-02-19T13:20:17.825Z,1.02
2019-02-19T13:22:46.516Z,1.00
2019-02-19T13:25:15.214Z,1.50
2019-02-19T13:27:43.679Z,1.50
2019-02-19T13:30:14.537Z,1.65
2019-02-19T13:32:42.941Z,1.80
2019-02-19T13:35:13.183Z,1.20
2019-02-19T13:37:41.618Z,0.90
2019-02-19T13:40:15.465Z,3.10
2019-02-19T13:42:44.205Z,1.87
2019-02-19T13:45:14.446Z,2.45
2019-02-19T13:47:42.933Z,1.65
2019-02-19T13:50:14.246Z,3.05
2019-02-19T13:52:44.614Z,2.15
2019-02-19T13:55:14.897Z,1.95
2019-02-19T13:57:43.353Z,2.80
2019-02-19T14:00:13.582Z,1.35
2019-02-19T14:02:42.063Z,1.65
2019-02-19T14:05:10.551Z,2.12
2019-02-19T14:07:39.275Z,2.17
2019-02-19T14:10:10.258Z,2.62
2019-02-19T14:12:38.675Z,1.67
2019-02-19T14:15:11.754Z,1.60
2019-02-19T14:17:40.148Z,1.63
2019-02-19T14:20:10.302Z,1.50
2019-02-19T14:22:43.311Z,1.05
2019-02-19T14:25:22.399Z,2.33
2019-02-19T14:28:10.710Z,1.75
2019-02-19T14:30:46.651Z,2.00
2019-02-19T14:33:22.678Z,1.98
2019-02-19T14:36:09.301Z,2.40
2019-02-19T14:38:51.604Z,2.50
2019-02-19T14:41:40.021Z,3.00
2019-02-19T14:44:13.041Z,2.60
2019-02-19T14:46:45.927Z,2.83
2019-02-19T14:49:30.092Z,1.20
2019-02-19T14:52:10.271Z,1.27
2019-02-19T14:54:40.338Z,1.37
2019-02-19T14:57:26.657Z,0.80
2019-02-19T15:00:06.202Z,2.10
2019-02-19T15:02:45.365Z,1.20
2019-02-19T15:05:24.989Z,2.60
2019-02-19T15:07:58.216Z,1.90
2019-02-19T15:10:37.116Z,2.10
2019-02-19T15:13:07.178Z,2.60
2019-02-19T15:15:53.844Z,1.55
2019-02-19T15:18:29.861Z,1.40
2019-02-19T15:21:11.867Z,1.40
2019-02-19T15:23:44.760Z,2.30
2019-02-19T15:26:20.615Z,1.32
2019-02-19T15:28:53.131Z,1.87
2019-02-19T15:31:25.668Z,2.05
2019-02-19T15:34:07.837Z,1.32
2019-02-19T15:36:53.867Z,2.00
2019-02-19T15:39:40.419Z,2.40
2019-02-19T15:42:10.807Z,1.80
2019-02-19T15:44:40.882Z,1.95
2019-02-19T15:47:19.797Z,2.80
2019-02-19T15:49:52.603Z,0.90
2019-02-19T15:52:22.656Z,1.32
2019-02-19T15:55:05.335Z,1.15
2019-02-19T15:57:47.437Z,1.10
2019-02-19T16:00:26.466Z,2.30
2019-02-19T16:02:59.513Z,1.30
2019-02-19T16:05:48.140Z,1.60
2019-02-19T16:08:18.482Z,1.47
2019-02-19T16:10:51.354Z,2.60
2019-02-19T16:13:36.521Z,1.00
2019-02-19T16:16:12.441Z,1.60
2019-02-19T16:18:51.614Z,1.75
2019-02-19T16:21:21.687Z,1.40
2019-02-19T16:24:03.733Z,0.90
2019-02-19T16:26:33.793Z,1.10
2019-02-19T16:29:03.869Z,1.20
2019-02-19T16:31:33.919Z,2.20
2019-02-19T16:34:19.311Z,1.10
2019-02-19T16:36:55.601Z,1.65
2019-02-19T16:39:31.998Z,1.90
2019-02-19T16:42:02.409Z,1.43
2019-02-19T16:44:44.470Z,1.50
2019-02-19T16:47:26.741Z,1.00
2019-02-19T16:50:07.604Z,1.00
2019-02-19T16:52:34.432Z,1.50
2019-02-19T16:55:04.580Z,2.25
2019-02-19T16:57:34.659Z,1.65
2019-02-19T17:00:07.931Z,1.00
2019-02-19T17:02:38.292Z,0.90
2019-02-19T17:05:21.008Z,1.42
2019-02-19T17:07:54.517Z,1.30
2019-02-19T17:10:34.187Z,0.70
2019-02-19T17:13:07.410Z,0.90
2019-02-19T17:15:40.138Z,0.90
2019-02-19T17:18:23.150Z,1.10
2019-02-19T17:20:56.436Z,1.45
2019-02-19T17:23:26.493Z,1.05
2019-02-19T17:26:05.327Z,2.50
2019-02-19T17:28:41.253Z,2.20
2019-02-19T17:31:11.341Z,1.50
2019-02-19T17:33:47.100Z,1.67
2019-02-19T17:36:27.013Z,1.10
2019-02-19T17:38:57.100Z,1.70
2019-02-19T17:41:44.167Z,1.77
2019-02-19T17:44:20.345Z,1.85
2019-02-19T17:46:56.527Z,1.00
2019-02-19T17:49:35.588Z,0.98
2019-02-19T17:52:24.038Z,1.27
2019-02-19T17:54:56.519Z,0.70
2019-02-19T17:57:42.792Z,1.27
2019-02-19T18:00:22.656Z,0.98
2019-02-19T18:03:08.910Z,0.90
2019-02-19T18:05:38.998Z,0.90
2019-02-19T18:08:09.363Z,1.10
2019-02-19T18:10:55.407Z,0.70
2019-02-19T18:13:41.882Z,1.47
2019-02-19T18:16:11.974Z,0.90
2019-02-19T18:18:48.608Z,1.00
2019-02-19T18:21:17.767Z,0.90
2019-02-19T18:23:46.611Z,0.80
2019-02-19T18:26:15.308Z,0.70
2019-02-19T18:28:43.714Z,1.10
2019-02-19T18:31:12.494Z,1.20
2019-02-19T18:33:40.920Z,0.88
2019-02-19T18:36:09.718Z,0.90
2019-02-19T18:38:38.123Z,1.00
2019-02-19T18:41:07.102Z,1.00
2019-02-19T18:43:35.527Z,0.80
2019-02-19T18:46:03.946Z,1.10
2019-02-19T18:48:32.678Z,1.02
2019-02-19T18:51:01.383Z,1.50
2019-02-19T18:53:29.797Z,1.70
2019-02-19T18:55:58.221Z,1.10
2019-02-19T18:58:26.677Z,0.88
2019-02-19T19:00:55.120Z,1.05
2019-02-19T19:03:23.566Z,0.70
2019-02-19T19:05:52.231Z,1.30
2019-02-19T19:08:20.923Z,1.15
2019-02-19T19:10:49.662Z,1.80
2019-02-19T19:13:18.141Z,1.50
2019-02-19T19:15:46.846Z,1.10
2019-02-19T19:18:15.543Z,0.70
2019-02-19T19:20:43.958Z,0.70
2019-02-19T19:23:12.387Z,0.70
2019-02-19T19:25:40.802Z,0.70
2019-02-19T19:28:09.233Z,1.00
2019-02-19T19:30:37.635Z,0.82
2019-02-19T19:33:06.395Z,0.90
2019-02-19T19:35:34.813Z,0.90
2019-02-19T19:38:03.217Z,1.00
2019-02-19T19:40:31.654Z,0.90
2019-02-19T19:43:00.362Z,0.80
2019-02-19T19:45:28.765Z,0.82
2019-02-19T19:47:57.205Z,0.78
2019-02-19T19:50:25.653Z,1.10
2019-02-19T19:52:54.100Z,0.90
2019-02-19T19:55:22.590Z,1.00
2019-02-19T19:57:51.034Z,1.20
2019-02-19T20:00:19.616Z,0.80
2019-02-19T20:02:48.331Z,1.30
2019-02-19T20:05:16.808Z,1.00
2019-02-19T20:07:45.239Z,1.50
2019-02-19T20:10:15.498Z,0.98
2019-02-19T20:12:43.926Z,1.00
2019-02-19T20:15:12.721Z,1.50
2019-02-19T20:17:41.195Z,1.40
2019-02-19T20:20:11.261Z,1.20
2019-02-19T20:22:39.699Z,0.80
2019-02-19T20:25:13.084Z,1.07
2019-02-19T20:27:41.576Z,0.80
2019-02-19T20:30:15.112Z,0.90
2019-02-19T20:32:43.529Z,0.70
2019-02-19T20:35:12.134Z,1.50
2019-02-19T20:37:40.571Z,0.90
2019-02-19T20:40:10.635Z,1.00
2019-02-19T20:42:39.069Z,1.00
2019-02-19T20:45:11.742Z,0.70
2019-02-19T20:47:40.197Z,0.60
2019-02-19T20:50:12.628Z,0.70
2019-02-19T20:52:41.074Z,0.75
2019-02-19T20:55:11.073Z,0.80
2019-02-19T20:57:39.551Z,0.70
2019-02-19T21:00:11.112Z,0.80
2019-02-19T21:02:39.546Z,1.20
2019-02-19T21:05:09.930Z,0.90
2019-02-19T21:07:38.427Z,0.70
2019-02-19T21:10:20.538Z,1.30
2019-02-19T21:12:48.964Z,1.00
2019-02-19T21:15:17.485Z,1.20
2019-02-19T21:17:45.872Z,1.00
2019-02-19T21:20:14.283Z,1.20
2019-02-19T21:22:42.696Z,1.60
2019-02-19T21:25:11.570Z,0.93
2019-02-19T21:27:40.061Z,2.47
2019-02-19T21:30:13.521Z,0.70
2019-02-19T21:32:41.914Z,0.90
2019-02-19T21:35:10.585Z,0.72
2019-02-19T21:37:39.299Z,0.88
2019-02-19T21:40:12.048Z,1.57
2019-02-19T21:42:40.794Z,0.90
2019-02-19T21:45:11.586Z,0.80
2019-02-19T21:47:40.010Z,1.57
2019-02-19T21:50:11.530Z,1.20
2019-02-19T21:52:40.290Z,0.90
2019-02-19T21:55:10.224Z,0.80
2019-02-19T21:57:38.638Z,0.70
2019-02-19T22:00:14.633Z,1.50
2019-02-19T22:02:43.035Z,1.70
2019-02-19T22:05:11.629Z,1.50
2019-02-19T22:07:40.036Z,1.35
2019-02-19T22:10:13.622Z,0.90
2019-02-19T22:12:42.061Z,0.70
2019-02-19T22:15:12.613Z,0.70
2019-02-19T22:17:41.044Z,0.70
2019-02-19T22:20:22.358Z,1.40
2019-02-19T22:22:51.124Z,1.00
2019-02-19T22:25:19.599Z,0.80
2019-02-19T22:27:48.312Z,0.80
2019-02-19T22:30:16.733Z,0.82
2019-02-19T22:32:45.154Z,1.70
2019-02-19T22:35:13.879Z,1.10
2019-02-19T22:37:42.319Z,1.40
2019-02-19T22:40:11.063Z,1.00
2019-02-19T22:42:39.759Z,1.40
2019-02-19T22:45:09.426Z,0.70
2019-02-19T22:47:37.822Z,1.00
2019-02-19T22:50:08.535Z,0.80
2019-02-19T22:52:37.218Z,1.17
2019-02-19T22:55:12.305Z,1.32
2019-02-19T22:57:40.741Z,0.70
2019-02-19T23:00:13.864Z,0.70
2019-02-19T23:02:42.670Z,1.10
2019-02-19T23:05:11.145Z,0.70
2019-02-19T23:07:39.576Z,0.70
2019-02-19T23:10:07.974Z,0.70
2019-02-19T23:12:36.647Z,0.90
2019-02-19T23:15:06.027Z,0.90
2019-02-19T23:17:34.752Z,0.70
2019-02-19T23:20:03.335Z,1.40
2019-02-19T23:22:31.749Z,0.90
2019-02-19T23:25:00.293Z,0.70
2019-02-19T23:27:28.771Z,0.70
2019-02-19T23:29:57.171Z,0.80
2019-02-19T23:32:25.583Z,0.70
2019-02-19T23:34:55.973Z,0.90
2019-02-19T23:37:24.374Z,1.50
2019-02-19T23:39:53.271Z,0.80
2019-02-19T23:42:21.809Z,1.40
2019-02-19T23:44:50.242Z,0.70
2019-02-19T23:47:18.635Z,1.40
2019-02-19T23:49:47.058Z,0.80
2019-02-19T23:52:15.460Z,0.70
2019-02-19T23:54:43.885Z,0.70
2019-02-19T23:57:12.606Z,1.00
2019-02-19T23:59:41.021Z,0.70
